TOP > 外国特許検索

外国特許検索

表示件数 詳細検索
特許の状態
出願国

リセット

該当件数 5150件

No. 出願番号
公報番号
出願国
発明の名称
掲載日
更新日
データ提供機関
5101 2001JP001479 WO 2001/064611 世界知的所有権機関(WIPO) POLYACENE DERIVATIVES AND PRODUCTION THEREOF 新技術説明会 2005/04/25 2008/09/02 科学技術振興機構(JST)
5102 2001JP001871 WO 2001/066736 世界知的所有権機関(WIPO) PROTEINS NECTIN-3 2005/04/25 2008/10/15 科学技術振興機構(JST)
5103 2001JP005165 WO 2002/001249 世界知的所有権機関(WIPO) CORPUSCULAR BEAM IMAGE DETECTOR USING GAS AMPLIFICATION BY PIXEL TYPE ELECTRODES 2005/04/25 2008/10/15 科学技術振興機構(JST)
5104 2000JP006867 WO 2002/003132 世界知的所有権機関(WIPO) WAVELENGTH CONVERTER 2005/04/25 2008/10/15 科学技術振興機構(JST)
5105 2001JP007196 WO 2002/015680 世界知的所有権機関(WIPO) TYPE III ALLERGIC INFLAMMATION MODEL ANIMAL 2005/04/25 2008/10/15 科学技術振興機構(JST)
5106 2001JP007234 WO 2002/018274 世界知的所有権機関(WIPO) IRIDIUM-BASED PYROCHLORE TYPE ELECTRICALLY CONDUCTIVE SUBSTANCE AND METHOD FOR PREPARATION THEREOF 2005/04/25 2008/09/02 科学技術振興機構(JST)
5107 2001JP007681 WO 2002/020913 世界知的所有権機関(WIPO) BRICK LAYING STRUCTURE, BRICK LAYING METHOD, AND BRICK MANUFACTURING METHOD 2005/04/25 2008/10/15 科学技術振興機構(JST)
5108 2003JP005727 WO 2003/095519 世界知的所有権機関(WIPO) NOVEL POLYESTER HAVING pi-CONJUGATED GROUP IN SIDE CHAIN AND CHARGE TRANSPORTING MATERIAL USING THE SAME 2005/04/25 2008/09/02 科学技術振興機構(JST)
5109 2003JP006518 WO 2003/099319 世界知的所有権機関(WIPO) PREVENTIVE/REMEDY FOR ARTERIOSCLEROSIS 2005/04/25 2008/09/02 科学技術振興機構(JST)
5110 78470497 5705738 アメリカ合衆国 Precise shear-stress measurement apparatus 実績あり 2005/02/22 2014/09/11 科学技術振興機構(JST)
5111 78884097 5998313 アメリカ合衆国 Cesium-lithium borate crystal 実績あり 2005/02/22 2014/09/11 科学技術振興機構(JST)
5112 83170801 6339159 アメリカ合衆国 Optically active α-aminonitrile and process for producing α-amino acid 2005/02/22 2014/08/26 科学技術振興機構(JST)
5113 62219600 6352954 アメリカ合衆国 Microencapsulated lewis acid 実績あり 2005/02/22 2014/08/26 科学技術振興機構(JST)
5114 64604200 6417368 アメリカ合衆国 AMINE DERIVATIVE FIXED TO RESIN AND METHOD FOR SYNTHESIZING β-AMINOCARBONYL COMPOUND IN A SOLID PHASE 2005/02/22 2010/05/18 科学技術振興機構(JST)
5115 67436200 06420372 アメリカ合衆国 Febrifugine, isofebrifugine and method for producing the same 2005/02/22 2013/08/07 科学技術振興機構(JST)
5116 64644800 6420553 アメリカ合衆国 Method for preparing metal complex of porphyrin 2005/02/22 2014/08/27 科学技術振興機構(JST)
5117 80774501 6465236 アメリカ合衆国 Thermostable collagen-digesting enzyme, novel microorganism producing the enzyme and process for producing the enzyme 2005/02/22 2014/08/27 科学技術振興機構(JST)
5118 88940701 6476250 アメリカ合衆国 OPTICALLY ACTIVE FLUORINATED BINAPHTHOL DERIVATIVE 2005/02/22 2004/12/02 科学技術振興機構(JST)
5119 74423901 6500278 アメリカ合衆国 Hot rolled electrical steel sheet excellent in magnetic characteristics and corrosion resistance and method for production thereof 2005/02/22 2014/08/27 科学技術振興機構(JST)
5120 89042401 6552799 アメリカ合衆国 Two-arm sagnac interferometer with two beam splitters 2005/02/22 2014/08/27 科学技術振興機構(JST)
5121 83040101 6593088 アメリカ合衆国 REVERSIBLE PHOTOCOUPLING NUCLEIC ACID AND PHOSPHOROAMIDITE 実績あり 2005/02/22 2010/05/18 科学技術振興機構(JST)
5122 2001JP007197 WO 2002/064785 世界知的所有権機関(WIPO) NOVEL CLOCK GENE Bmal2 2005/02/22 2008/10/14 科学技術振興機構(JST)
5123 2001JP011434 WO 2002/066280 世界知的所有権機関(WIPO) IN-WHEEL MOTOR FOR ELECTRIC AUTOMOBILES 2005/02/22 2008/10/14 科学技術振興機構(JST)
5124 2001JP009360 WO 2002/068360 世界知的所有権機関(WIPO) METHOD FOR PRODUCING SIC FIBER/SIC COMPOSITE MATERIAL HAVING HIGH STRENGTH 2005/02/22 2008/10/15 科学技術振興機構(JST)
5125 2002JP002309 WO 2002/072643 世界知的所有権機関(WIPO) POLYMER-SUPPORTED ARYLBIS(PERFLUOROALKYLSULFONYL)-METHANE 2005/02/22 2010/05/18 科学技術振興機構(JST)
5126 2002JP002242 WO 2002/073707 世界知的所有権機関(WIPO) LOW-DIMENSIONAL PLASMON LIGHT EMITTING DEVICE 2005/02/22 2008/10/15 科学技術振興機構(JST)
5127 2002JP002488 WO 2002/077331 世界知的所有権機関(WIPO) METHOD FOR FLATTENING SURFACE OF OXIDE CRYSTAL TO ULTRA HIGH DEGREE 2005/02/22 2008/09/01 科学技術振興機構(JST)
5128 2001JP009363 WO 2002/081405 世界知的所有権機関(WIPO) METHOD FOR PRODUCING SIC FIBER-REINFORCED SIC COMPOSITE MATERIAL BY MEANS OF HOT PRESS 2005/02/22 2008/10/15 科学技術振興機構(JST)
5129 2001JP010808 WO 2002/086178 世界知的所有権機関(WIPO) CU-BE BASE AMORPHOUS ALLOY 2005/02/22 2008/10/15 科学技術振興機構(JST)
5130 2002JP007734 WO 2003/011866 世界知的所有権機関(WIPO) PORPHYRIN-METAL COMPLEXES AND OXYGEN INFUSIONS CONTAINING THE SAME 2005/02/22 2008/10/15 科学技術振興機構(JST)
5131 2002JP000118 WO 2003/014354 世界知的所有権機関(WIPO) TYROSYL-TRNA SYNTHASE VARIANTS 2005/02/22 2008/09/01 科学技術振興機構(JST)
5132 2002JP008559 WO 2003/018525 世界知的所有権機関(WIPO) PHOTORESPONSIVE POLYMER, BUILT-UP TYPE DIACETYLENE POLYMER, CRYSTALS OF AMMONIUM CARBOXYLATES, AND PROCESSES FOR PRODUCTION OF THEM 2005/02/22 2008/10/15 科学技術振興機構(JST)
5133 2002JP009049 WO 2003/023094 世界知的所有権機関(WIPO) OXIDE HIGH-TEMPERATURE SUPERCONDUCTOR AND ITS PRODUCTION METHOD 2005/02/22 2008/09/01 科学技術振興機構(JST)
5134 2002JP011105 WO 2003/037079 世界知的所有権機関(WIPO) NONHUMAN MODEL ANIMAL OF Th2-MEDIATED HYPERIMMUNE RESPONSE 2005/02/22 2008/10/15 科学技術振興機構(JST)
5135 2002JP012053 WO 2003/043649 世界知的所有権機関(WIPO) REMOVAL PROMOTERS AND INHIBITOR FOR APOPTOSIS CELLS IN VIVO 2005/02/22 2008/10/15 科学技術振興機構(JST)
5136 2002JP012273 WO 2003/046519 世界知的所有権機関(WIPO) DELAY TIME MODULATION FEMTOSECOND TIME-RESOLVED SCANNING PROBE MICROSCOPE APPARATUS 2005/02/22 2008/09/01 科学技術振興機構(JST)
5137 2002JP006773 WO 2003/064474 世界知的所有権機関(WIPO) PRODUCTION OF HYBRIDOMA PRODUCING ANTIHUMAN CENP-A PEPTIDE MONOCLONAL ANTIBODY AND METHOD OF USING THE SAME 2005/02/22 2008/09/02 科学技術振興機構(JST)
5138 2003JP000705 WO 2003/071280 世界知的所有権機関(WIPO) FLUORESCENT SENSOR FOR PHOSPHATE ION AND PHOSPHORYLATED PEPTIDE 2005/02/22 2008/10/15 科学技術振興機構(JST)
5139 2003JP000716 WO 2003/072848 世界知的所有権機関(WIPO) METHOD AND DEVICE FOR MANUFACTURING SEMICONDUCTOR OR INSULATOR/METALLIC LAMINAR COMPOSITE CLUSTER 2005/02/22 2008/10/15 科学技術振興機構(JST)
5140 2003JP002257 WO 2003/074749 世界知的所有権機関(WIPO) SOFT MAGNETIC METALLIC GLASS ALLOY 2005/02/22 2008/10/15 科学技術振興機構(JST)
5141 2003JP002860 WO 2003/076072 世界知的所有権機関(WIPO) PRACTICAL CHIRAL ZIRCONIUM CATALYST 2005/02/22 2008/09/02 科学技術振興機構(JST)
5142 2003JP002715 WO 2003/076396 世界知的所有権機関(WIPO) PROCESS FOR PRODUCING β-AMINOKETONE AND CATALYST THEREFOR 2005/02/22 2008/10/15 科学技術振興機構(JST)
5143 2003JP002862 WO 2003/076410 世界知的所有権機関(WIPO) PROCESS FOR ASYMMETRIC INTRAMOLECULAR [3+2] CYCLO- ADDITION OF HYDRAZONES 2005/02/22 2008/09/02 科学技術振興機構(JST)
5144 2002JP001186 WO 2002/068104 世界知的所有権機関(WIPO) PROCESS FOR PRODUCING EMULSION AND MICROCAPSULES AND APPARATUS THEREFOR 2004/12/22 2010/05/18 科学技術振興機構(JST)
5145 2003JP001572 WO 2003/068969 世界知的所有権機関(WIPO) MOUSE SPERMATOGENESIS GENES, HUMAN MALE STERILITY-ASSOCIATED GENES AND DIAGNOSTIC SYSTEM USING THE SAME 2004/12/22 2008/09/02 科学技術振興機構(JST)
5146 1999JP006294 WO 2000/028015 世界知的所有権機関(WIPO) MUTAGENESIS METHOD 2004/12/22 2008/09/02 科学技術振興機構(JST)
5147 2000JP001816 WO 2000/058784 世界知的所有権機関(WIPO) METHOD FOR EXTRA-HIGH SPEED TRANSFORMATION OF TIME SIGNAL INTO TWO-DIMENSIONAL SPACE SIGNAL 2004/12/22 2010/05/18 科学技術振興機構(JST)
5148 2000JP004815 WO 2001/005989 世界知的所有権機関(WIPO) METHOD OF CONSTRUCTING RECOMBINANT ADENOVIRUS VECTOR 2004/12/22 2008/10/15 科学技術振興機構(JST)
5149 2001JP008893 WO 2002/033074 世界知的所有権機関(WIPO) ARTIFICIAL PROTEIN HAVING POTENTIATED IMMUNOGENICITY OF EPITOPE 2004/12/22 2008/10/15 科学技術振興機構(JST)
5150 2001JP009082 WO 2002/035727 世界知的所有権機関(WIPO) SYSTEM IDENTIFYING METHOD 2004/12/22 2008/10/15 科学技術振興機構(JST)

(52/52ページ)

PAGE TOP